createdAt,value
2018-03-06T00:01:13.123Z,17.90
2018-03-06T00:03:40.696Z,17.90
2018-03-06T00:06:08.231Z,17.90
2018-03-06T00:08:36.526Z,17.80
2018-03-06T00:11:04.836Z,17.80
2018-03-06T00:13:32.368Z,17.80
2018-03-06T00:16:00.655Z,17.90
2018-03-06T00:18:28.187Z,17.80
2018-03-06T00:20:55.727Z,17.80
2018-03-06T00:23:23.264Z,17.80
2018-03-06T00:25:50.836Z,17.80
2018-03-06T00:28:18.368Z,17.80
2018-03-06T00:30:45.910Z,17.80
2018-03-06T00:33:13.518Z,17.80
2018-03-06T00:35:41.083Z,17.80
2018-03-06T00:38:09.581Z,17.80
2018-03-06T00:40:37.141Z,17.80
2018-03-06T00:43:04.669Z,17.80
2018-03-06T00:45:33.077Z,17.80
2018-03-06T00:48:00.606Z,17.80
2018-03-06T00:50:28.143Z,17.80
2018-03-06T00:52:55.758Z,17.80
2018-03-06T00:55:23.330Z,17.80
2018-03-06T00:57:50.861Z,17.80
2018-03-06T01:00:18.389Z,17.80
2018-03-06T01:02:46.029Z,17.80
2018-03-06T01:05:13.591Z,17.80
2018-03-06T01:07:41.149Z,17.80
2018-03-06T01:10:08.682Z,17.80
2018-03-06T01:12:36.209Z,17.80
2018-03-06T01:15:03.843Z,17.80
2018-03-06T01:17:31.384Z,17.80
2018-03-06T01:19:59.680Z,17.80
2018-03-06T01:22:27.351Z,17.80
2018-03-06T01:24:54.892Z,17.80
2018-03-06T01:27:23.198Z,17.80
2018-03-06T01:29:50.737Z,17.80
2018-03-06T01:32:19.034Z,17.80
2018-03-06T01:34:46.573Z,17.80
2018-03-06T01:37:14.112Z,17.80
2018-03-06T01:39:41.640Z,17.80
2018-03-06T01:42:09.168Z,17.80
2018-03-06T01:44:36.958Z,17.80
2018-03-06T01:47:04.532Z,17.80
2018-03-06T01:49:32.059Z,17.80
2018-03-06T01:51:59.604Z,17.80
2018-03-06T01:54:27.231Z,17.70
2018-03-06T01:56:54.762Z,17.80
2018-03-06T01:59:23.077Z,17.80
2018-03-06T02:01:50.613Z,17.70
2018-03-06T02:04:18.934Z,17.80
2018-03-06T02:06:46.482Z,17.70
2018-03-06T02:09:14.042Z,17.80
2018-03-06T02:11:41.619Z,17.80
2018-03-06T02:14:09.147Z,17.80
2018-03-06T02:16:37.454Z,17.80
2018-03-06T02:19:04.986Z,17.70
2018-03-06T02:21:33.284Z,17.80
2018-03-06T02:24:01.586Z,17.80
2018-03-06T02:26:29.141Z,17.70
2018-03-06T02:28:56.663Z,17.80
2018-03-06T02:31:24.195Z,17.80
2018-03-06T02:33:51.732Z,17.70
2018-03-06T02:36:19.269Z,17.80
2018-03-06T02:38:47.565Z,17.70
2018-03-06T02:41:15.872Z,17.70
2018-03-06T02:43:43.430Z,17.70
2018-03-06T02:46:12.624Z,17.70
2018-03-06T02:48:40.189Z,17.70
2018-03-06T02:51:07.761Z,17.80
2018-03-06T02:53:35.296Z,17.70
2018-03-06T02:56:03.603Z,17.70
2018-03-06T02:58:31.139Z,17.70
2018-03-06T03:00:59.431Z,17.70
2018-03-06T03:03:26.961Z,17.70
2018-03-06T03:05:56.000Z,17.70
2018-03-06T03:08:23.534Z,17.70
2018-03-06T03:10:51.133Z,17.70
2018-03-06T03:13:18.657Z,17.70
2018-03-06T03:15:46.260Z,17.70
2018-03-06T03:18:13.790Z,17.70
2018-03-06T03:20:42.936Z,17.70
2018-03-06T03:23:10.481Z,17.70
2018-03-06T03:25:38.012Z,17.70
2018-03-06T03:28:05.536Z,17.70
2018-03-06T03:30:33.087Z,17.70
2018-03-06T03:33:00.641Z,17.70
2018-03-06T03:35:28.172Z,17.70
2018-03-06T03:37:55.703Z,17.70
2018-03-06T03:40:23.236Z,17.70
2018-03-06T03:42:50.765Z,17.70
2018-03-06T03:45:18.359Z,17.70
2018-03-06T03:47:45.893Z,17.70
2018-03-06T03:50:13.495Z,17.70
2018-03-06T03:52:41.025Z,17.70
2018-03-06T03:55:09.614Z,17.70
2018-03-06T03:57:37.139Z,17.70
2018-03-06T04:00:04.668Z,17.70
2018-03-06T04:02:32.253Z,17.70
2018-03-06T04:04:59.814Z,17.70
2018-03-06T04:07:27.363Z,17.70
2018-03-06T04:09:55.004Z,17.70
2018-03-06T04:12:23.317Z,17.70
2018-03-06T04:14:50.878Z,17.60
2018-03-06T04:17:18.466Z,17.70
2018-03-06T04:19:45.988Z,17.70
2018-03-06T04:22:14.277Z,17.70
2018-03-06T04:24:41.809Z,17.60
2018-03-06T04:27:09.416Z,17.70
2018-03-06T04:29:36.948Z,17.70
2018-03-06T04:32:05.257Z,17.70
2018-03-06T04:34:32.779Z,17.60
2018-03-06T04:37:00.322Z,17.70
2018-03-06T04:39:27.957Z,17.70
2018-03-06T04:41:55.499Z,17.70
2018-03-06T04:44:23.808Z,17.70
2018-03-06T04:46:51.338Z,17.70
2018-03-06T04:49:19.644Z,17.70
2018-03-06T04:51:47.178Z,17.70
2018-03-06T04:54:15.489Z,17.70
2018-03-06T04:56:43.019Z,17.70
2018-03-06T04:59:11.328Z,17.70
2018-03-06T05:01:38.891Z,17.60
2018-03-06T05:04:06.469Z,17.70
2018-03-06T05:06:33.988Z,17.70
2018-03-06T05:09:01.596Z,17.70
2018-03-06T05:11:29.156Z,17.70
2018-03-06T05:13:57.541Z,17.70
2018-03-06T05:16:25.083Z,17.70
2018-03-06T05:18:53.382Z,17.70
2018-03-06T05:21:20.918Z,17.70
2018-03-06T05:23:49.220Z,17.70
2018-03-06T05:26:16.793Z,17.60
2018-03-06T05:28:44.361Z,17.70
2018-03-06T05:31:11.892Z,17.70
2018-03-06T05:33:40.853Z,17.70
2018-03-06T05:36:08.482Z,17.60
2018-03-06T05:38:36.002Z,17.70
2018-03-06T05:41:03.532Z,17.70
2018-03-06T05:43:31.058Z,17.70
2018-03-06T05:45:58.594Z,17.70
2018-03-06T05:48:26.129Z,17.60
2018-03-06T05:50:53.658Z,17.60
2018-03-06T05:53:21.184Z,17.60
2018-03-06T05:55:48.794Z,17.60
2018-03-06T05:58:16.323Z,17.60
2018-03-06T06:00:43.850Z,17.60
2018-03-06T06:03:12.304Z,17.60
2018-03-06T06:05:39.868Z,17.60
2018-03-06T06:08:07.396Z,17.60
2018-03-06T06:10:34.920Z,17.60
2018-03-06T06:13:02.983Z,17.60
2018-03-06T06:15:30.517Z,17.60
2018-03-06T06:17:58.815Z,17.60
2018-03-06T06:20:27.095Z,17.60
2018-03-06T06:22:55.380Z,17.60
2018-03-06T06:25:22.892Z,17.60
2018-03-06T06:27:50.509Z,17.60
2018-03-06T06:30:18.069Z,17.60
2018-03-06T06:32:45.635Z,17.60
2018-03-06T06:35:14.017Z,17.60
2018-03-06T06:37:42.405Z,17.60
2018-03-06T06:40:09.963Z,17.60
2018-03-06T06:42:38.348Z,17.60
2018-03-06T06:45:07.243Z,17.60
2018-03-06T06:47:35.522Z,17.60
2018-03-06T06:50:03.817Z,17.60
2018-03-06T06:52:31.329Z,17.60
2018-03-06T06:54:58.924Z,17.60
2018-03-06T06:57:27.223Z,17.60
2018-03-06T06:59:54.741Z,17.60
2018-03-06T07:02:22.254Z,17.60
2018-03-06T07:04:49.797Z,17.70
2018-03-06T07:07:18.080Z,17.70
2018-03-06T07:09:46.478Z,17.70
2018-03-06T07:12:14.002Z,17.70
2018-03-06T07:14:41.601Z,17.70
2018-03-06T07:17:09.123Z,17.70
2018-03-06T07:19:36.721Z,17.70
2018-03-06T07:22:05.100Z,17.70
2018-03-06T07:24:33.382Z,17.70
2018-03-06T07:27:01.663Z,17.70
2018-03-06T07:29:29.936Z,17.70
2018-03-06T07:31:58.226Z,17.70
2018-03-06T07:34:26.517Z,17.70
2018-03-06T07:36:54.057Z,17.60
2018-03-06T07:39:22.084Z,17.70
2018-03-06T07:41:49.650Z,17.70
2018-03-06T07:44:17.130Z,17.70
2018-03-06T07:46:44.647Z,17.70
2018-03-06T07:49:12.165Z,17.70
2018-03-06T07:51:39.771Z,17.70
2018-03-06T07:54:07.333Z,17.70
2018-03-06T07:56:34.858Z,17.70
2018-03-06T07:59:02.388Z,17.70
2018-03-06T08:01:29.921Z,17.70
2018-03-06T08:03:58.201Z,17.70
2018-03-06T08:06:26.481Z,17.70
2018-03-06T08:08:54.767Z,17.70
2018-03-06T08:11:22.284Z,17.70
2018-03-06T08:13:49.799Z,17.70
2018-03-06T08:16:17.959Z,17.70
2018-03-06T08:18:46.259Z,17.70
2018-03-06T08:21:13.818Z,17.70
2018-03-06T08:23:41.328Z,17.70
2018-03-06T08:26:08.956Z,17.70
2018-03-06T08:28:36.507Z,17.80
2018-03-06T08:31:05.344Z,17.80
2018-03-06T08:33:32.970Z,17.80
2018-03-06T08:36:00.529Z,17.90
2018-03-06T08:38:28.855Z,17.90
2018-03-06T08:40:56.379Z,17.80
2018-03-06T08:43:23.895Z,17.90
2018-03-06T08:45:51.414Z,17.90
2018-03-06T08:48:18.961Z,17.90
2018-03-06T08:50:47.238Z,17.90
2018-03-06T08:53:15.622Z,17.90
2018-03-06T08:55:43.897Z,17.90
2018-03-06T08:58:12.172Z,17.90
2018-03-06T09:00:40.475Z,17.90
2018-03-06T09:03:09.172Z,17.80
2018-03-06T09:05:36.695Z,17.90
2018-03-06T09:08:04.222Z,17.90
2018-03-06T09:10:31.729Z,17.90
2018-03-06T09:13:00.042Z,17.90
2018-03-06T09:15:29.161Z,17.80
2018-03-06T09:17:56.702Z,17.90
2018-03-06T09:20:24.273Z,17.90
2018-03-06T09:22:51.825Z,17.90
2018-03-06T09:25:20.111Z,17.90
2018-03-06T09:27:48.380Z,17.80
2018-03-06T09:30:16.652Z,17.90
2018-03-06T09:32:44.945Z,17.90
2018-03-06T09:35:13.224Z,17.90
2018-03-06T09:37:41.501Z,17.90
2018-03-06T09:40:09.780Z,17.90
2018-03-06T09:42:38.069Z,17.90
2018-03-06T09:45:06.380Z,18.00
2018-03-06T09:47:33.908Z,17.90
2018-03-06T09:50:02.216Z,18.00
2018-03-06T09:52:29.721Z,17.90
2018-03-06T09:54:57.254Z,18.00
2018-03-06T09:57:25.807Z,18.00
2018-03-06T09:59:54.204Z,18.00
2018-03-06T10:02:21.730Z,17.90
2018-03-06T10:04:49.314Z,18.00
2018-03-06T10:07:17.613Z,18.00
2018-03-06T10:09:45.131Z,18.00
2018-03-06T10:12:12.637Z,18.00
2018-03-06T10:14:41.089Z,18.00
2018-03-06T10:17:08.614Z,18.00
2018-03-06T10:19:36.144Z,18.00
2018-03-06T10:22:03.663Z,18.00
2018-03-06T10:24:31.268Z,18.00
2018-03-06T10:26:59.544Z,18.00
2018-03-06T10:29:27.833Z,18.10
2018-03-06T10:31:55.435Z,18.00
2018-03-06T10:34:22.947Z,18.10
2018-03-06T10:36:51.242Z,18.10
2018-03-06T10:39:18.768Z,18.00
2018-03-06T10:41:46.356Z,18.10
2018-03-06T10:44:14.648Z,18.20
2018-03-06T10:46:42.924Z,18.20
2018-03-06T10:49:11.208Z,18.20
2018-03-06T10:51:39.491Z,18.20
2018-03-06T10:54:07.769Z,18.20
2018-03-06T10:56:36.059Z,18.20
2018-03-06T10:59:03.613Z,18.10
2018-03-06T11:01:32.821Z,18.20
2018-03-06T11:04:00.391Z,18.20
2018-03-06T11:06:27.898Z,18.20
2018-03-06T11:08:55.417Z,18.20
2018-03-06T11:11:22.937Z,18.20
2018-03-06T11:13:50.537Z,18.20
2018-03-06T11:16:18.819Z,18.20
2018-03-06T11:18:47.107Z,18.30
2018-03-06T11:21:14.648Z,18.30
2018-03-06T11:23:42.943Z,18.40
2018-03-06T11:26:11.321Z,18.30
2018-03-06T11:28:39.604Z,18.30
2018-03-06T11:31:07.887Z,18.30
2018-03-06T11:33:36.262Z,18.30
2018-03-06T11:36:04.544Z,18.30
2018-03-06T11:38:32.822Z,18.30
2018-03-06T11:41:01.105Z,18.30
2018-03-06T11:43:29.488Z,18.30
2018-03-06T11:45:57.783Z,18.30
2018-03-06T11:48:25.294Z,18.30
2018-03-06T11:50:52.799Z,18.30
2018-03-06T11:53:21.081Z,18.30
2018-03-06T11:55:49.358Z,18.30
2018-03-06T11:58:17.747Z,18.30
2018-03-06T12:00:46.031Z,18.30
2018-03-06T12:03:13.548Z,18.30
2018-03-06T12:05:41.104Z,18.30
2018-03-06T12:08:08.632Z,18.30
2018-03-06T12:10:36.144Z,18.30
2018-03-06T12:13:03.651Z,18.30
2018-03-06T12:15:31.208Z,18.30
2018-03-06T12:18:00.357Z,18.40
2018-03-06T12:20:27.877Z,18.40
2018-03-06T12:22:55.437Z,18.40
2018-03-06T12:25:22.997Z,18.40
2018-03-06T12:27:51.277Z,18.40
2018-03-06T12:30:19.660Z,18.40
2018-03-06T12:32:47.929Z,18.40
2018-03-06T12:35:16.200Z,18.40
2018-03-06T12:37:43.719Z,18.40
2018-03-06T12:40:11.251Z,18.40
2018-03-06T12:42:39.535Z,18.50
2018-03-06T12:45:07.042Z,18.40
2018-03-06T12:47:34.556Z,18.50
2018-03-06T12:50:02.835Z,18.50
2018-03-06T12:52:31.109Z,18.50
2018-03-06T12:54:59.455Z,18.50
2018-03-06T12:57:26.933Z,18.50
2018-03-06T12:59:54.445Z,18.50
2018-03-06T13:02:22.150Z,18.50
2018-03-06T13:04:49.671Z,18.50
2018-03-06T13:07:17.218Z,18.50
2018-03-06T13:09:45.500Z,18.50
2018-03-06T13:12:13.889Z,18.50
2018-03-06T13:14:41.754Z,18.50
2018-03-06T13:17:10.038Z,18.50
2018-03-06T13:19:37.556Z,18.50
2018-03-06T13:22:05.161Z,18.50
2018-03-06T13:24:33.439Z,18.50
2018-03-06T13:27:01.842Z,18.50
2018-03-06T13:29:29.390Z,18.50
2018-03-06T13:31:57.677Z,18.50
2018-03-06T13:34:25.203Z,18.50
2018-03-06T13:36:52.724Z,18.50
2018-03-06T13:39:20.266Z,18.50
2018-03-06T13:41:48.561Z,18.50
2018-03-06T13:44:16.080Z,18.50
2018-03-06T13:46:43.584Z,18.50
2018-03-06T13:49:11.156Z,18.50
2018-03-06T13:51:38.664Z,18.50
2018-03-06T13:54:06.185Z,18.50
2018-03-06T13:56:33.697Z,18.50
2018-03-06T13:59:01.283Z,18.60
2018-03-06T14:01:29.575Z,18.70
2018-03-06T14:03:57.089Z,18.70
2018-03-06T14:06:24.710Z,18.70
2018-03-06T14:08:52.261Z,18.70
2018-03-06T14:11:20.535Z,18.70
2018-03-06T14:13:48.925Z,18.70
2018-03-06T14:16:17.205Z,18.70
2018-03-06T14:18:45.598Z,18.70
2018-03-06T14:21:13.156Z,18.60
2018-03-06T14:23:41.429Z,18.60
2018-03-06T14:26:09.713Z,18.60
2018-03-06T14:28:37.984Z,18.60
2018-03-06T14:31:06.893Z,18.60
2018-03-06T14:33:35.272Z,18.60
2018-03-06T14:36:03.656Z,18.60
2018-03-06T14:38:31.938Z,18.60
2018-03-06T14:41:00.315Z,18.60
2018-03-06T14:43:28.605Z,18.60
2018-03-06T14:45:56.885Z,18.60
2018-03-06T14:48:25.255Z,18.60
2018-03-06T14:50:53.535Z,18.60
2018-03-06T14:53:21.807Z,18.60
2018-03-06T14:55:49.384Z,18.60
2018-03-06T14:58:17.682Z,18.60
2018-03-06T15:00:45.197Z,18.50
2018-03-06T15:03:12.806Z,18.50
2018-03-06T15:05:40.324Z,18.50
2018-03-06T15:08:08.235Z,18.60
2018-03-06T15:10:36.514Z,18.60
2018-03-06T15:13:04.786Z,18.60
2018-03-06T15:15:33.085Z,18.60
2018-03-06T15:18:00.645Z,18.60
2018-03-06T15:20:28.170Z,18.60
2018-03-06T15:22:55.704Z,18.60
2018-03-06T15:25:23.239Z,18.60
2018-03-06T15:27:50.748Z,18.60
2018-03-06T15:30:18.374Z,18.60
2018-03-06T15:32:45.925Z,18.60
2018-03-06T15:35:14.318Z,18.60
2018-03-06T15:37:41.826Z,18.60
2018-03-06T15:40:09.365Z,18.60
2018-03-06T15:42:37.437Z,18.60
2018-03-06T15:45:04.986Z,18.60
2018-03-06T15:47:32.577Z,18.60
2018-03-06T15:50:00.235Z,18.60
2018-03-06T15:52:27.784Z,18.60
2018-03-06T15:54:55.341Z,18.60
2018-03-06T15:57:22.882Z,18.60
2018-03-06T15:59:51.209Z,18.60
2018-03-06T16:02:18.772Z,18.60
2018-03-06T16:04:46.336Z,18.60
2018-03-06T16:07:14.267Z,18.60
2018-03-06T16:09:42.575Z,18.50
2018-03-06T16:12:10.115Z,18.50
2018-03-06T16:14:38.445Z,18.50
2018-03-06T16:17:06.006Z,18.50
2018-03-06T16:19:33.547Z,18.50
2018-03-06T16:22:01.130Z,18.50
2018-03-06T16:24:28.696Z,18.50
2018-03-06T16:26:56.246Z,18.50
2018-03-06T16:29:23.812Z,18.50
2018-03-06T16:31:51.368Z,18.50
2018-03-06T16:34:18.908Z,18.50
2018-03-06T16:36:47.240Z,18.50
2018-03-06T16:39:14.800Z,18.50
2018-03-06T16:41:42.533Z,18.50
2018-03-06T16:44:10.949Z,18.50
2018-03-06T16:46:38.493Z,18.50
2018-03-06T16:49:06.041Z,18.50
2018-03-06T16:51:34.366Z,18.50
2018-03-06T16:54:01.926Z,18.50
2018-03-06T16:56:29.477Z,18.50
2018-03-06T16:58:57.065Z,18.50
2018-03-06T17:01:24.613Z,18.50
2018-03-06T17:03:52.178Z,18.50
2018-03-06T17:06:19.734Z,18.50
2018-03-06T17:08:47.282Z,18.50
2018-03-06T17:11:14.875Z,18.50
2018-03-06T17:13:42.530Z,18.50
2018-03-06T17:16:10.507Z,18.50
2018-03-06T17:18:38.105Z,18.50
2018-03-06T17:21:05.751Z,18.50
2018-03-06T17:23:33.302Z,18.50
2018-03-06T17:26:00.996Z,18.50
2018-03-06T17:28:29.534Z,18.50
2018-03-06T17:30:57.079Z,18.50
2018-03-06T17:33:25.405Z,18.50
2018-03-06T17:35:52.956Z,18.50
2018-03-06T17:38:20.506Z,18.50
2018-03-06T17:40:48.059Z,18.50
2018-03-06T17:43:16.403Z,18.50
2018-03-06T17:45:44.046Z,18.50
2018-03-06T17:48:11.611Z,18.50
2018-03-06T17:50:39.182Z,18.50
2018-03-06T17:53:06.726Z,18.50
2018-03-06T17:55:34.269Z,18.50
2018-03-06T17:58:02.806Z,18.50
2018-03-06T18:00:30.348Z,18.50
2018-03-06T18:02:57.895Z,18.50
2018-03-06T18:05:25.492Z,18.50
2018-03-06T18:07:53.150Z,18.50
2018-03-06T18:10:20.714Z,18.50
2018-03-06T18:12:48.905Z,18.50
2018-03-06T18:15:16.532Z,18.50
2018-03-06T18:17:44.076Z,18.50
2018-03-06T18:20:12.404Z,18.60
2018-03-06T18:22:39.978Z,18.50
2018-03-06T18:25:07.537Z,18.60
2018-03-06T18:27:35.109Z,18.50
2018-03-06T18:30:02.653Z,18.50
2018-03-06T18:32:30.209Z,18.50
2018-03-06T18:34:57.769Z,18.50
2018-03-06T18:37:25.334Z,18.50
2018-03-06T18:39:52.895Z,18.50
2018-03-06T18:42:20.446Z,18.50
2018-03-06T18:44:48.873Z,18.50
2018-03-06T18:47:16.434Z,18.50
2018-03-06T18:50:01.614Z,18.50
2018-03-06T18:52:29.267Z,18.40
2018-03-06T18:54:56.831Z,18.40
2018-03-06T18:57:24.386Z,18.40
2018-03-06T19:00:14.790Z,18.40
2018-03-06T19:02:55.126Z,18.40
2018-03-06T19:05:34.454Z,18.40
2018-03-06T19:08:01.998Z,18.40
2018-03-06T19:10:31.194Z,18.40
2018-03-06T19:12:59.518Z,18.40
2018-03-06T19:15:27.059Z,18.40
2018-03-06T19:17:55.242Z,18.40
2018-03-06T19:20:22.805Z,18.40
2018-03-06T19:22:50.355Z,18.30
2018-03-06T19:25:17.976Z,18.30
2018-03-06T19:27:45.639Z,18.30
2018-03-06T19:30:13.195Z,18.40
2018-03-06T19:32:40.755Z,18.40
2018-03-06T19:35:08.269Z,18.30
2018-03-06T19:37:37.556Z,18.40
2018-03-06T19:40:05.093Z,18.30
2018-03-06T19:42:32.598Z,18.30
2018-03-06T19:45:00.887Z,18.30
2018-03-06T19:47:29.159Z,18.40
2018-03-06T19:49:57.455Z,18.30
2018-03-06T19:52:24.975Z,18.30
2018-03-06T19:54:52.581Z,18.40
2018-03-06T19:57:20.157Z,18.40
2018-03-06T19:59:47.672Z,18.30
2018-03-06T20:02:15.267Z,18.30
2018-03-06T20:04:43.651Z,18.30
2018-03-06T20:07:11.933Z,18.30
2018-03-06T20:09:40.210Z,18.30
2018-03-06T20:12:08.486Z,18.30
2018-03-06T20:14:42.510Z,18.40
2018-03-06T20:17:10.783Z,18.40
2018-03-06T20:19:40.906Z,18.40
2018-03-06T20:22:09.292Z,18.40
2018-03-06T20:24:58.264Z,18.40
2018-03-06T20:27:25.772Z,18.40
2018-03-06T20:29:53.306Z,18.40
2018-03-06T20:32:26.988Z,18.40
2018-03-06T20:34:54.748Z,18.40
2018-03-06T20:37:23.037Z,18.40
2018-03-06T20:39:56.836Z,18.40
2018-03-06T20:42:25.255Z,18.40
2018-03-06T20:44:52.766Z,18.40
2018-03-06T20:47:22.938Z,18.40
2018-03-06T20:49:50.452Z,18.40
2018-03-06T20:52:18.732Z,18.40
2018-03-06T20:54:52.756Z,18.40
2018-03-06T20:57:21.030Z,18.40
2018-03-06T20:59:49.325Z,18.40
2018-03-06T21:02:16.908Z,18.40
2018-03-06T21:04:44.430Z,18.40
2018-03-06T21:07:11.954Z,18.40
2018-03-06T21:09:39.470Z,18.40
2018-03-06T21:12:07.753Z,18.40
2018-03-06T21:14:36.028Z,18.40
2018-03-06T21:17:04.339Z,18.40
2018-03-06T21:19:31.855Z,18.40
2018-03-06T21:21:59.468Z,18.40
2018-03-06T21:24:26.982Z,18.40
2018-03-06T21:26:54.592Z,18.40
2018-03-06T21:29:22.598Z,18.40
2018-03-06T21:31:51.065Z,18.40
2018-03-06T21:34:18.593Z,18.40
2018-03-06T21:36:46.878Z,18.40
2018-03-06T21:39:15.263Z,18.50
2018-03-06T21:41:43.541Z,18.60
2018-03-06T21:44:11.929Z,18.60
2018-03-06T21:46:40.757Z,18.70
2018-03-06T21:49:08.280Z,18.60
2018-03-06T21:51:36.561Z,18.60
2018-03-06T21:54:04.947Z,18.60
2018-03-06T21:56:33.948Z,18.60
2018-03-06T21:59:01.451Z,18.60
2018-03-06T22:01:28.960Z,18.50
2018-03-06T22:03:57.237Z,18.50
2018-03-06T22:06:25.522Z,18.50
2018-03-06T22:08:53.798Z,18.50
2018-03-06T22:11:22.099Z,18.50
2018-03-06T22:13:49.628Z,18.50
2018-03-06T22:16:17.132Z,18.50
2018-03-06T22:18:44.690Z,18.50
2018-03-06T22:21:12.209Z,18.50
2018-03-06T22:23:39.730Z,18.50
2018-03-06T22:26:07.254Z,18.50
2018-03-06T22:28:35.299Z,18.50
2018-03-06T22:31:02.809Z,18.50
2018-03-06T22:33:31.093Z,18.50
2018-03-06T22:35:59.582Z,18.50
2018-03-06T22:38:27.978Z,18.50
2018-03-06T22:40:55.533Z,18.50
2018-03-06T22:43:23.090Z,18.50
2018-03-06T22:45:51.469Z,18.50
2018-03-06T22:48:19.751Z,18.50
2018-03-06T22:50:48.019Z,18.50
2018-03-06T22:53:16.293Z,18.50
2018-03-06T22:55:43.873Z,18.50
2018-03-06T22:58:12.261Z,18.50
2018-03-06T23:00:40.538Z,18.50
2018-03-06T23:03:08.923Z,18.50
2018-03-06T23:05:37.314Z,18.50
2018-03-06T23:08:05.717Z,18.50
2018-03-06T23:10:33.260Z,18.50
2018-03-06T23:13:00.779Z,18.50
2018-03-06T23:15:28.376Z,18.50
2018-03-06T23:17:56.662Z,18.50
2018-03-06T23:20:25.276Z,18.50
2018-03-06T23:22:52.787Z,18.40
2018-03-06T23:25:20.311Z,18.50
2018-03-06T23:27:47.840Z,18.50
2018-03-06T23:30:16.785Z,18.50
2018-03-06T23:32:44.307Z,18.50
2018-03-06T23:35:11.814Z,18.50
2018-03-06T23:37:39.431Z,18.50
2018-03-06T23:40:07.706Z,18.50
2018-03-06T23:42:36.087Z,18.40
2018-03-06T23:45:04.365Z,18.50
2018-03-06T23:47:32.653Z,18.50
2018-03-06T23:50:01.038Z,18.40
2018-03-06T23:52:29.306Z,18.50
2018-03-06T23:54:57.700Z,18.40
2018-03-06T23:57:25.974Z,18.50
2018-03-06T23:59:54.247Z,18.50
